Maydelle, Texas
Current Conditions -  °F | °C
As of 5:55 PM on Wednesday 22 Oct 2014 (Local Time) from KJSO Reporting Station
Clear Clear  
Wind Chill: 75°   Ceiling: Unl
Heat Index: 75°   Visibility: 10mi
Dew Point: 53°   Wind: 0mph
Humidity: 46%   Direction: NA
Pressure: 30.1"   Gusts: NA
Location:  31.8°N, 95.3°W
Report Text: KJSO 222255Z AUTO 00000KT 10SM CLR 24/11 A3010 RMK AO2 T02410118
Loading
Personal Weather Stations






























Interactive Weather Map
Tropical Storm Tracking
New forecast layout! Learn more

10-Day Weather Forecast

Advertisements
Track Severe Weather on mobile